Aérodrome :
LOGIN :

S'inscrire | Disclaimer

   EN    FR    IT 

 










Légende :    VFR   VFR Marginal   IFR   IFR Intensif   IFR Très Intensif
Visi : 
Plafond : 
>= 8 km
>= 3000ft
5 à 8 km
1000 à 3000 ft
1500m à 5 km
500 à 1000 ft
800 à 1500m
200 à 500 ft
< 800m
< 200 ft
Symboles :   Orages  Brouillard  Fortes neiges  Fortes précipitations  Vent > 20 kt
SIGMETs :   Divers  Orages  Givrage  Turbulence  Onde Orograph.  Cendres Volcan.






- Altitude de l'aérodrome : 505 ft
- Code IATA : SXB


LFST - Strasbourg

DERNIER METAR :
  • 141130Z AUTO 02009KT 330V060 9999 FEW054 SCT074 BKN090 10/M02 Q1027 TEMPO FEW050TCU

METARs EXPIRÉS :
  • 141100Z AUTO 03011KT 9999 SCT052 10/M03 Q1028 TEMPO FEW045TCU
  • 141030Z AUTO 05009KT 010V080 9999 SCT047 SCT054 11/M01 Q1028 TEMPO FEW045TCU
  • 141000Z AUTO 01010KT 320V040 9999 FEW044 09/M01 Q1028 NOSIG
  • 140930Z AUTO 05009KT 9999 FEW037 09/M01 Q1028 NOSIG
  • 140900Z AUTO 02009KT 350V050 CAVOK 09/M00 Q1029 NOSIG

TAF TAF LFST
Valide du 14 à 12h jusqu'au 15 à 12h UTC


141100Z 1412/1512 03012KT CAVOK
PROB40
TEMPO 1412/1415 -SHRA FEW050TCU
PROB30
TEMPO 1504/1506 BKN008
PROB40
TEMPO 1510/1512 -SHRA FEW050TCU



MET'MAP, la Météo Aéronautique d'un coup d'oeil ! - Copyright ORBIFLY Décembre 2007 - Disclaimer

ORBIFLY MET'MAP TEAM :

Programmation & Développement : Alexandra Zaïnal
Sur une idée originale de : Baudouin d'Aumeries
Assistance à la programmation : Marc-Olivier Méhu
Soutien technique & logistique : Manuel Goepfert

Contact : metmap@orbifly.com




SOURCES & CREDITS :

   NOAA